Time;durP1;ratioP1;P1;durP2;ratioP2;P2;SDS_P1;SDS_P2;PMS_P1;PMS_P2;Temp;Humidity;BMP_temperature;BMP_pressure;BME280_temperature;BME280_humidity;BME280_pressure;Samples;Min_cycle;Max_cycle;Signal;HPM_P1;HPM_P2
2023/07/29 00:00:49;;;;;;;1.63;1.53;;;25.00;56.40;;;;;;4974416;28;20189;-71
2023/07/29 00:03:14;;;;;;;1.50;1.20;;;25.00;55.90;;;;;;4974425;28;20546;-70
2023/07/29 00:05:40;;;;;;;1.70;1.20;;;24.90;55.70;;;;;;4974457;28;20181;-71
2023/07/29 00:08:06;;;;;;;1.67;1.30;;;25.00;55.90;;;;;;4974369;28;20205;-71
2023/07/29 00:10:36;;;;;;;1.33;0.90;;;25.00;55.80;;;;;;4974257;28;20500;-71
2023/07/29 00:13:02;;;;;;;1.40;1.00;;;25.00;55.80;;;;;;4974350;28;20432;-71
2023/07/29 00:15:28;;;;;;;2.80;1.40;;;24.90;55.70;;;;;;4974248;28;20410;-71
2023/07/29 00:17:53;;;;;;;1.20;1.10;;;24.90;55.80;;;;;;4941200;28;20197;-72
2023/07/29 00:20:19;;;;;;;1.33;1.10;;;24.90;55.80;;;;;;4973818;28;20197;-71
2023/07/29 00:22:44;;;;;;;1.63;1.30;;;24.90;55.80;;;;;;4974041;28;20214;-71
2023/07/29 00:25:10;;;;;;;1.50;1.20;;;24.90;55.70;;;;;;4974102;28;20178;-71
2023/07/29 00:27:35;;;;;;;1.40;1.10;;;24.90;55.70;;;;;;4974061;28;20185;-71
2023/07/29 00:30:01;;;;;;;1.30;1.00;;;24.90;55.70;;;;;;4973977;28;20276;-71
2023/07/29 00:32:30;;;;;;;1.30;1.20;;;24.90;55.70;;;;;;4973859;28;20209;-71
2023/07/29 00:34:56;;;;;;;1.60;1.30;;;24.90;55.70;;;;;;4973898;28;20174;-71
2023/07/29 00:37:22;;;;;;;1.70;1.20;;;24.90;55.90;;;;;;4972948;28;20428;-71
2023/07/29 00:39:47;;;;;;;1.20;1.10;;;24.90;55.70;;;;;;4973763;28;20571;-71
2023/07/29 00:42:13;;;;;;;1.40;1.23;;;24.90;55.70;;;;;;4973681;28;20613;-71
2023/07/29 00:44:38;;;;;;;1.97;1.30;;;24.90;55.70;;;;;;4973795;28;20216;-71
2023/07/29 00:47:06;;;;;;;1.70;1.30;;;24.90;55.70;;;;;;4973699;28;20178;-71
2023/07/29 00:49:32;;;;;;;1.20;1.10;;;24.90;55.70;;;;;;4973672;28;20241;-70
2023/07/29 00:51:58;;;;;;;1.40;1.30;;;24.90;55.70;;;;;;4973651;28;20421;-73
2023/07/29 00:54:24;;;;;;;1.90;1.30;;;24.90;55.60;;;;;;4973664;28;20185;-71
2023/07/29 00:56:50;;;;;;;1.30;1.10;;;24.90;55.70;;;;;;4973575;28;20183;-72
2023/07/29 00:59:16;;;;;;;1.17;1.00;;;24.90;55.70;;;;;;4973526;28;20201;-71
2023/07/29 01:01:42;;;;;;;1.40;1.23;;;24.90;55.70;;;;;;4973386;28;20500;-71
2023/07/29 01:04:07;;;;;;;1.43;1.17;;;24.90;55.70;;;;;;4973466;28;20597;-71
2023/07/29 01:06:49;;;;;;;1.30;1.10;;;24.90;55.70;;;;;;4973396;28;20425;-71
2023/07/29 01:09:47;;;;;;;1.40;1.30;;;24.90;55.60;;;;;;4972544;28;20193;-71
2023/07/29 01:12:24;;;;;;;1.40;1.23;;;24.90;55.70;;;;;;4946699;28;20433;-71
2023/07/29 01:15:16;;;;;;;1.20;1.10;;;24.90;55.70;;;;;;4973359;28;20405;-71
2023/07/29 01:18:05;;;;;;;1.80;1.20;;;24.90;55.70;;;;;;4969375;28;20432;-71
2023/07/29 01:20:36;;;;;;;1.87;1.20;;;24.90;55.60;;;;;;4973193;28;20949;-71
2023/07/29 01:23:01;;;;;;;1.37;1.27;;;24.90;55.70;;;;;;4973181;28;20803;-71
2023/07/29 01:25:27;;;;;;;1.30;1.20;;;24.90;55.60;;;;;;4973230;28;20496;-71
2023/07/29 01:27:52;;;;;;;1.53;1.40;;;24.90;55.70;;;;;;4973214;28;20670;-71
2023/07/29 01:30:20;;;;;;;1.73;1.33;;;24.90;55.60;;;;;;4973246;28;20193;-71
2023/07/29 01:33:04;;;;;;;1.20;1.10;;;24.90;55.70;;;;;;4973491;28;20236;-71
2023/07/29 01:35:53;;;;;;;1.40;1.17;;;24.90;55.60;;;;;;4973196;28;20405;-71
2023/07/29 01:38:24;;;;;;;1.33;1.00;;;24.90;55.70;;;;;;4973119;28;20409;-71
2023/07/29 01:40:52;;;;;;;1.53;1.43;;;24.90;55.60;;;;;;4973060;28;20437;-72
2023/07/29 01:43:23;;;;;;;1.57;1.40;;;24.90;55.50;;;;;;4972966;28;20456;-70
2023/07/29 01:45:49;;;;;;;1.37;1.27;;;24.90;55.50;;;;;;4973148;28;20385;-72
2023/07/29 01:48:14;;;;;;;1.70;1.40;;;24.90;55.50;;;;;;4972964;28;20427;-70
2023/07/29 01:50:40;;;;;;;1.30;1.20;;;24.90;55.50;;;;;;4972935;28;20631;-71
2023/07/29 01:53:05;;;;;;;1.80;1.60;;;24.90;55.40;;;;;;4973219;28;20269;-71
2023/07/29 01:55:31;;;;;;;1.70;1.60;;;24.90;55.40;;;;;;4972943;28;20647;-71
2023/07/29 01:57:58;;;;;;;1.30;1.00;;;25.00;55.50;;;;;;4973202;28;20193;-72
2023/07/29 02:00:23;;;;;;;1.60;1.47;;;24.90;55.40;;;;;;4972958;28;20293;-71
2023/07/29 02:02:49;;;;;;;1.30;1.10;;;24.90;55.40;;;;;;4973026;28;20560;-71
2023/07/29 02:05:15;;;;;;;1.57;1.30;;;24.90;55.40;;;;;;4972915;28;20651;-71
2023/07/29 02:07:40;;;;;;;2.43;1.50;;;24.90;55.40;;;;;;4972813;28;20178;-71
2023/07/29 02:10:07;;;;;;;1.40;1.20;;;24.90;55.40;;;;;;4972785;28;20577;-71
2023/07/29 02:12:33;;;;;;;2.10;1.13;;;24.90;55.30;;;;;;4971685;28;20182;-71
2023/07/29 02:14:58;;;;;;;1.40;1.20;;;25.00;55.30;;;;;;4972798;28;20421;-71
2023/07/29 02:17:24;;;;;;;1.70;1.10;;;25.00;55.30;;;;;;4972857;28;20584;-71
2023/07/29 02:19:49;;;;;;;2.67;1.70;;;25.00;55.30;;;;;;4973462;28;20229;-71
2023/07/29 02:22:18;;;;;;;1.80;1.37;;;24.90;55.30;;;;;;4975053;28;20201;-71
2023/07/29 02:24:44;;;;;;;2.60;1.37;;;24.90;55.20;;;;;;4976661;28;20174;-71
2023/07/29 02:27:09;;;;;;;1.40;1.10;;;24.90;55.20;;;;;;4976283;28;20412;-71
2023/07/29 02:29:35;;;;;;;1.60;1.50;;;24.90;55.20;;;;;;4976209;28;20432;-72
2023/07/29 02:32:00;;;;;;;1.43;1.30;;;25.00;55.20;;;;;;4976099;28;20197;-71
2023/07/29 02:34:26;;;;;;;1.57;1.27;;;25.00;55.20;;;;;;4976198;28;20190;-71
2023/07/29 02:36:52;;;;;;;1.37;1.27;;;24.90;55.10;;;;;;4976061;28;20188;-71
2023/07/29 02:39:17;;;;;;;2.10;1.70;;;25.00;55.20;;;;;;4958653;28;20185;-71
2023/07/29 02:41:43;;;;;;;1.50;1.40;;;25.00;55.20;;;;;;4974678;28;20209;-72
2023/07/29 02:44:08;;;;;;;1.37;1.20;;;25.00;55.20;;;;;;4958590;28;20189;-72
2023/07/29 02:46:34;;;;;;;1.30;1.20;;;25.00;55.10;;;;;;4976204;28;20173;-71
2023/07/29 02:49:01;;;;;;;2.90;1.60;;;24.90;55.00;;;;;;4975810;28;20210;-71
2023/07/29 02:51:27;;;;;;;2.00;1.30;;;25.00;55.10;;;;;;4975842;28;20660;-71
2023/07/29 02:53:52;;;;;;;1.57;1.47;;;25.00;55.10;;;;;;4975853;28;20501;-71
2023/07/29 02:56:18;;;;;;;1.60;1.33;;;25.00;55.20;;;;;;4975743;28;20178;-71
2023/07/29 02:58:44;;;;;;;2.00;1.70;;;24.90;55.20;;;;;;4975739;28;20181;-70
2023/07/29 03:01:10;;;;;;;1.80;1.40;;;25.00;55.20;;;;;;4975508;28;20221;-71
2023/07/29 03:03:35;;;;;;;2.07;1.87;;;25.00;55.20;;;;;;4975576;28;20425;-71
2023/07/29 03:06:09;;;;;;;2.47;1.80;;;25.00;55.20;;;;;;4975495;28;20643;-71
2023/07/29 03:08:35;;;;;;;1.70;1.53;;;25.00;55.30;;;;;;4975809;28;20158;-71
2023/07/29 03:11:10;;;;;;;1.50;1.37;;;25.00;55.30;;;;;;4975367;28;20441;-71
2023/07/29 03:13:37;;;;;;;2.90;1.27;;;25.00;55.30;;;;;;4975454;28;20918;-71
2023/07/29 03:16:06;;;;;;;2.00;1.50;;;25.00;55.50;;;;;;4975374;28;20409;-72
2023/07/29 03:18:31;;;;;;;1.90;1.53;;;25.00;55.60;;;;;;4975361;28;20993;-72
2023/07/29 03:20:57;;;;;;;1.63;1.37;;;24.90;55.50;;;;;;4975225;28;20474;-70
2023/07/29 03:23:23;;;;;;;2.37;1.50;;;24.90;55.50;;;;;;4975137;28;20206;-71
2023/07/29 03:25:51;;;;;;;2.37;1.23;;;24.90;55.50;;;;;;4975468;28;20174;-72
2023/07/29 03:28:16;;;;;;;1.30;1.20;;;24.90;55.50;;;;;;4975379;28;20182;-71
2023/07/29 03:30:43;;;;;;;1.53;1.40;;;24.90;55.60;;;;;;4974852;28;20465;-71
2023/07/29 03:33:09;;;;;;;1.80;1.50;;;24.90;55.50;;;;;;4974621;28;20264;-71
2023/07/29 03:35:34;;;;;;;1.80;1.70;;;24.90;55.60;;;;;;4975002;28;20493;-71
2023/07/29 03:38:00;;;;;;;1.73;1.47;;;24.90;55.60;;;;;;4974948;28;20185;-71
2023/07/29 03:40:25;;;;;;;1.67;1.57;;;24.90;55.50;;;;;;4957649;28;20295;-71
2023/07/29 03:42:51;;;;;;;1.40;1.23;;;24.90;55.60;;;;;;4974773;28;20290;-71
2023/07/29 03:45:16;;;;;;;1.67;1.57;;;24.90;55.60;;;;;;4974782;28;20240;-71
2023/07/29 03:47:42;;;;;;;1.77;1.60;;;24.90;55.60;;;;;;4974836;28;20173;-71
2023/07/29 03:50:08;;;;;;;2.83;1.53;;;24.90;55.70;;;;;;4974463;28;20678;-71
2023/07/29 03:52:34;;;;;;;1.73;1.63;;;24.90;55.50;;;;;;4957563;28;20660;-71
2023/07/29 03:54:59;;;;;;;1.57;1.40;;;24.90;55.50;;;;;;4974645;28;20486;-71
2023/07/29 03:57:25;;;;;;;1.90;1.30;;;24.90;55.50;;;;;;4974610;28;20209;-71
2023/07/29 03:59:50;;;;;;;1.77;1.40;;;24.90;55.60;;;;;;4974344;28;20240;-71
2023/07/29 04:02:16;;;;;;;2.47;1.70;;;24.90;55.60;;;;;;4974238;28;20209;-71
2023/07/29 04:04:44;;;;;;;1.80;1.40;;;24.90;55.60;;;;;;4974504;28;20177;-71
2023/07/29 04:07:09;;;;;;;1.40;1.30;;;24.90;55.70;;;;;;4974540;28;20174;-71
2023/07/29 04:09:35;;;;;;;1.60;1.33;;;24.90;55.70;;;;;;4974392;28;20425;-72
2023/07/29 04:12:00;;;;;;;1.43;1.33;;;24.90;55.70;;;;;;4974409;28;20583;-71
2023/07/29 04:14:26;;;;;;;3.00;1.80;;;24.90;55.70;;;;;;4974341;28;20184;-71
2023/07/29 04:16:52;;;;;;;2.00;1.80;;;24.90;55.70;;;;;;4973667;28;20309;-71
2023/07/29 04:19:17;;;;;;;1.50;1.20;;;24.90;55.70;;;;;;4973523;28;20193;-72
2023/07/29 04:21:43;;;;;;;1.93;1.53;;;24.90;55.70;;;;;;4974072;28;20316;-71
2023/07/29 04:24:08;;;;;;;1.97;1.57;;;24.90;55.70;;;;;;4974430;28;20181;-71
2023/07/29 04:26:34;;;;;;;1.97;1.53;;;24.90;55.70;;;;;;4972903;28;20260;-71
2023/07/29 04:28:59;;;;;;;2.07;1.87;;;24.90;55.70;;;;;;4974098;28;20205;-71
2023/07/29 04:31:25;;;;;;;2.23;2.00;;;24.90;55.60;;;;;;4973868;28;20282;-71
2023/07/29 04:33:51;;;;;;;2.10;1.60;;;24.90;55.60;;;;;;4956635;28;20178;-71
2023/07/29 04:36:17;;;;;;;1.70;1.50;;;24.90;55.60;;;;;;4974137;28;20546;-70
2023/07/29 04:38:42;;;;;;;1.90;1.57;;;24.90;55.60;;;;;;4973894;28;20421;-70
2023/07/29 04:41:08;;;;;;;1.90;1.60;;;24.90;55.60;;;;;;4973747;28;20753;-71
2023/07/29 04:43:34;;;;;;;1.60;1.20;;;24.90;56.20;;;;;;4972435;28;20177;-71
2023/07/29 04:46:00;;;;;;;1.80;1.57;;;24.90;55.70;;;;;;4973697;28;20780;-71
2023/07/29 04:48:26;;;;;;;2.20;1.50;;;24.90;55.70;;;;;;4973961;28;20215;-71
2023/07/29 04:50:51;;;;;;;1.90;1.60;;;24.90;55.70;;;;;;4973610;28;20913;-71
2023/07/29 04:53:17;;;;;;;3.70;1.60;;;24.90;55.60;;;;;;4973734;28;20174;-71
2023/07/29 04:55:43;;;;;;;3.90;1.70;;;24.90;55.70;;;;;;4973586;28;20650;-71
2023/07/29 04:58:09;;;;;;;3.07;1.70;;;24.90;55.70;;;;;;4973569;28;20185;-71
2023/07/29 05:00:34;;;;;;;2.37;1.60;;;24.90;55.70;;;;;;4973477;28;20689;-70
2023/07/29 05:03:01;;;;;;;1.57;1.40;;;24.90;55.70;;;;;;4972196;28;20264;-71
2023/07/29 05:05:26;;;;;;;1.70;1.60;;;24.90;55.60;;;;;;4973491;28;20170;-70
2023/07/29 05:07:52;;;;;;;1.57;1.43;;;24.90;55.70;;;;;;4973420;28;20843;-71
2023/07/29 05:10:18;;;;;;;2.10;1.37;;;24.90;55.60;;;;;;4955994;28;20201;-71
2023/07/29 05:12:44;;;;;;;1.63;1.53;;;24.90;55.70;;;;;;4973621;28;20262;-71
2023/07/29 05:15:10;;;;;;;1.70;1.57;;;24.90;55.70;;;;;;4973417;28;20185;-71
2023/07/29 05:17:35;;;;;;;1.70;1.50;;;24.90;55.70;;;;;;4973347;28;20678;-72
2023/07/29 05:20:01;;;;;;;1.60;1.40;;;24.90;55.70;;;;;;4973538;28;20278;-72
2023/07/29 05:22:26;;;;;;;1.60;1.50;;;24.90;55.70;;;;;;4973483;28;20679;-71
2023/07/29 05:24:52;;;;;;;1.30;1.20;;;24.90;55.70;;;;;;4973195;28;20555;-72
2023/07/29 05:27:17;;;;;;;3.17;1.50;;;24.90;55.70;;;;;;4973226;28;20546;-71
2023/07/29 05:29:44;;;;;;;1.57;1.47;;;24.90;55.70;;;;;;4973105;28;20192;-71
2023/07/29 05:32:10;;;;;;;2.00;1.77;;;24.90;55.70;;;;;;4973102;28;20220;-71
2023/07/29 05:34:35;;;;;;;2.00;1.50;;;24.90;55.80;;;;;;4955804;28;20463;-71
2023/07/29 05:37:01;;;;;;;1.70;1.40;;;24.90;55.80;;;;;;4973161;28;20170;-71
2023/07/29 05:39:26;;;;;;;1.83;1.60;;;24.90;55.80;;;;;;4973051;28;20205;-71
2023/07/29 05:41:52;;;;;;;1.73;1.60;;;24.90;55.80;;;;;;4973044;28;20223;-71
2023/07/29 05:44:17;;;;;;;1.80;1.40;;;24.90;55.80;;;;;;4973151;28;20543;-71
2023/07/29 05:46:43;;;;;;;2.83;2.20;;;24.90;55.80;;;;;;4973038;28;20174;-71
2023/07/29 05:49:09;;;;;;;1.40;1.20;;;24.90;55.90;;;;;;4973062;28;20173;-71
2023/07/29 05:51:34;;;;;;;1.70;1.60;;;24.90;55.90;;;;;;4972740;28;20174;-71
2023/07/29 05:54:00;;;;;;;1.40;1.30;;;24.90;55.90;;;;;;4973064;28;20221;-71
2023/07/29 05:56:25;;;;;;;2.03;1.43;;;24.90;55.90;;;;;;4976607;28;20185;-71
2023/07/29 05:58:51;;;;;;;2.13;1.50;;;24.90;55.90;;;;;;4976802;28;20185;-71
2023/07/29 06:01:21;;;;;;;1.90;1.60;;;24.90;55.90;;;;;;4976591;28;20236;-71
2023/07/29 06:03:46;;;;;;;2.53;1.50;;;24.90;55.80;;;;;;4958003;28;20185;-72
2023/07/29 06:06:13;;;;;;;2.10;1.87;;;24.90;55.80;;;;;;4976933;28;20413;-71
2023/07/29 06:08:39;;;;;;;1.67;1.50;;;24.90;55.90;;;;;;4976631;28;20182;-71
2023/07/29 06:11:06;;;;;;;1.83;1.50;;;24.90;55.80;;;;;;4976738;28;20441;-70
2023/07/29 06:13:32;;;;;;;2.83;2.00;;;24.90;55.90;;;;;;4976535;28;20193;-71
2023/07/29 06:15:58;;;;;;;1.73;1.50;;;24.90;56.00;;;;;;4976495;28;20416;-71
2023/07/29 06:18:24;;;;;;;1.80;1.53;;;24.90;56.00;;;;;;4976443;28;20405;-71
2023/07/29 06:20:50;;;;;;;3.67;2.00;;;24.90;55.90;;;;;;4974273;28;20228;-71
2023/07/29 06:23:17;;;;;;;2.13;1.93;;;24.90;56.00;;;;;;4976230;28;20456;-72
2023/07/29 06:25:42;;;;;;;2.00;1.70;;;24.90;56.00;;;;;;4976329;28;20530;-71
2023/07/29 06:28:09;;;;;;;2.90;1.73;;;24.90;56.10;;;;;;4976183;28;20405;-71
2023/07/29 06:30:35;;;;;;;2.07;1.87;;;24.90;56.00;;;;;;4976164;28;20201;-71
2023/07/29 06:33:03;;;;;;;2.07;1.87;;;24.90;56.00;;;;;;4958836;28;20433;-72
2023/07/29 06:35:28;;;;;;;2.30;1.87;;;24.90;56.10;;;;;;4976157;28;20423;-71
2023/07/29 06:37:55;;;;;;;5.57;2.43;;;24.90;56.00;;;;;;4958721;28;20428;-71
2023/07/29 06:40:21;;;;;;;2.20;1.73;;;24.90;56.20;;;;;;4975957;28;20683;-71
2023/07/29 06:42:48;;;;;;;2.33;2.00;;;24.90;56.20;;;;;;4974655;28;20467;-71
2023/07/29 06:45:15;;;;;;;2.30;2.00;;;24.90;56.10;;;;;;4976499;28;20250;-71
2023/07/29 06:47:41;;;;;;;3.30;2.10;;;24.90;56.20;;;;;;4958584;28;20508;-72
2023/07/29 06:50:07;;;;;;;1.50;1.40;;;24.90;56.20;;;;;;4958360;28;20876;-71
2023/07/29 06:52:33;;;;;;;3.43;1.83;;;24.90;56.30;;;;;;4975780;28;20178;-72
2023/07/29 06:55:00;;;;;;;2.33;2.10;;;24.90;56.40;;;;;;4976276;28;20507;-71
2023/07/29 06:57:26;;;;;;;3.40;2.10;;;24.90;56.40;;;;;;4974410;28;20487;-71
2023/07/29 06:59:51;;;;;;;2.27;2.00;;;24.90;56.40;;;;;;4974406;28;20445;-71
2023/07/29 07:02:17;;;;;;;2.73;1.60;;;24.90;56.40;;;;;;4958555;28;20208;-71
2023/07/29 07:04:42;;;;;;;2.10;1.90;;;24.90;56.40;;;;;;4975663;28;20309;-72
2023/07/29 07:07:09;;;;;;;3.00;2.23;;;24.90;56.40;;;;;;4974250;28;20173;-71
2023/07/29 07:09:35;;;;;;;2.90;1.97;;;24.90;56.40;;;;;;4975448;28;20192;-70
2023/07/29 07:12:00;;;;;;;1.93;1.60;;;24.90;56.40;;;;;;4975443;28;20896;-71
2023/07/29 07:14:26;;;;;;;2.27;1.70;;;24.90;56.50;;;;;;4975403;28;20185;-71
2023/07/29 07:16:51;;;;;;;2.07;1.70;;;24.90;56.50;;;;;;4975299;28;20181;-71
2023/07/29 07:19:17;;;;;;;2.50;2.07;;;24.90;56.50;;;;;;4975175;28;20181;-71
2023/07/29 07:21:43;;;;;;;3.03;2.30;;;24.90;56.70;;;;;;4975370;28;20261;-71
2023/07/29 07:24:09;;;;;;;2.10;1.90;;;24.90;56.70;;;;;;4975265;28;20507;-71
2023/07/29 07:26:34;;;;;;;3.47;1.97;;;24.90;56.80;;;;;;4974841;28;20456;-71
2023/07/29 07:29:00;;;;;;;2.33;2.00;;;24.90;56.80;;;;;;4975403;28;20193;-71
2023/07/29 07:31:26;;;;;;;2.77;1.80;;;24.90;56.70;;;;;;4944835;28;20218;-71
2023/07/29 07:33:51;;;;;;;2.87;2.17;;;24.90;56.80;;;;;;4946830;28;20186;-71
2023/07/29 07:36:17;;;;;;;3.13;1.73;;;24.90;56.80;;;;;;4963977;28;20313;-71
2023/07/29 07:38:44;;;;;;;2.40;2.10;;;24.90;57.40;;;;;;4965836;28;20185;-72
2023/07/29 07:41:09;;;;;;;3.63;1.87;;;24.90;56.80;;;;;;4964993;28;20573;-70
2023/07/29 07:43:35;;;;;;;2.80;1.80;;;24.90;56.80;;;;;;4963926;28;20461;-70
2023/07/29 07:46:01;;;;;;;2.67;1.70;;;24.90;56.80;;;;;;4965115;28;20216;-72
2023/07/29 07:48:28;;;;;;;2.90;1.80;;;24.90;56.80;;;;;;4963146;28;20170;-71
2023/07/29 07:50:53;;;;;;;1.83;1.63;;;24.90;56.80;;;;;;4960530;28;20437;-71
2023/07/29 07:53:19;;;;;;;3.03;1.80;;;24.90;56.80;;;;;;4955238;29;20417;-72
2023/07/29 07:55:45;;;;;;;2.27;2.03;;;24.90;56.80;;;;;;4955406;29;20229;-71
2023/07/29 07:58:11;;;;;;;2.70;2.50;;;24.90;56.80;;;;;;4922358;29;20947;-72
2023/07/29 08:00:36;;;;;;;3.37;2.87;;;24.90;56.90;;;;;;4955602;29;20206;-72
2023/07/29 08:03:02;;;;;;;3.37;2.83;;;24.90;56.80;;;;;;4955194;29;20265;-71
2023/07/29 08:05:28;;;;;;;4.33;3.10;;;24.90;56.90;;;;;;4955334;29;20525;-72
2023/07/29 08:07:53;;;;;;;4.53;4.13;;;24.90;56.90;;;;;;4938146;29;20183;-71
2023/07/29 08:10:19;;;;;;;4.27;3.27;;;24.90;57.00;;;;;;4937477;29;20698;-71
2023/07/29 08:12:44;;;;;;;5.07;4.13;;;24.90;57.00;;;;;;4937919;29;20210;-71
2023/07/29 08:15:10;;;;;;;4.67;3.97;;;24.90;57.50;;;;;;4955095;29;20287;-71
2023/07/29 08:17:36;;;;;;;5.20;3.93;;;24.90;56.90;;;;;;4954434;28;20194;-72
2023/07/29 08:20:01;;;;;;;4.47;3.93;;;24.90;57.00;;;;;;4937713;29;20206;-71
2023/07/29 08:22:27;;;;;;;6.70;4.20;;;24.90;57.00;;;;;;4954862;29;20212;-71
2023/07/29 08:24:52;;;;;;;5.83;4.33;;;24.90;57.00;;;;;;4954877;29;20277;-71
2023/07/29 08:27:18;;;;;;;6.27;4.20;;;24.90;57.00;;;;;;4937945;29;20178;-71
2023/07/29 08:29:43;;;;;;;5.30;4.77;;;24.90;57.00;;;;;;4954650;29;20680;-72
2023/07/29 08:32:09;;;;;;;5.00;3.80;;;24.90;57.10;;;;;;4954723;29;20273;-71
2023/07/29 08:34:35;;;;;;;4.23;3.70;;;24.90;57.00;;;;;;4954654;29;20186;-70
2023/07/29 08:37:01;;;;;;;4.87;3.63;;;24.90;57.50;;;;;;4954613;29;20678;-70
2023/07/29 08:39:28;;;;;;;5.47;3.97;;;24.90;57.00;;;;;;4954525;29;20213;-71
2023/07/29 08:42:10;;;;;;;4.57;3.73;;;24.90;57.00;;;;;;4937136;29;20854;-70
2023/07/29 08:44:41;;;;;;;3.53;2.93;;;24.90;57.10;;;;;;4954487;29;20457;-70
2023/07/29 08:47:07;;;;;;;4.20;3.27;;;24.90;57.00;;;;;;4954455;29;20430;-70
2023/07/29 08:49:33;;;;;;;5.43;2.90;;;24.90;57.10;;;;;;4954710;29;20513;-68
2023/07/29 08:52:00;;;;;;;3.90;3.10;;;24.90;57.20;;;;;;4954386;28;20193;-68
2023/07/29 08:54:26;;;;;;;4.73;3.20;;;24.90;57.40;;;;;;4954455;29;20918;-66
2023/07/29 08:56:52;;;;;;;3.73;2.83;;;24.90;57.40;;;;;;4936943;29;20432;-69
2023/07/29 08:59:19;;;;;;;3.70;3.00;;;24.90;57.40;;;;;;4954218;29;20636;-69
2023/07/29 09:01:44;;;;;;;3.93;2.93;;;24.90;57.30;;;;;;4954296;29;20201;-69
2023/07/29 09:04:10;;;;;;;5.37;3.07;;;24.90;57.30;;;;;;4954342;29;20421;-69
2023/07/29 09:06:39;;;;;;;6.37;3.00;;;24.90;57.20;;;;;;4954324;29;20178;-69
2023/07/29 09:09:05;;;;;;;5.83;3.33;;;24.90;57.20;;;;;;4954104;29;20181;-70
2023/07/29 09:11:32;;;;;;;3.27;2.83;;;24.90;57.20;;;;;;4954272;29;20418;-71
2023/07/29 09:13:58;;;;;;;4.97;2.80;;;24.90;57.10;;;;;;4954270;29;20513;-70
2023/07/29 09:16:24;;;;;;;3.30;2.23;;;24.90;57.20;;;;;;4954167;29;20493;-68
2023/07/29 09:18:51;;;;;;;3.07;2.47;;;24.90;57.20;;;;;;4954109;29;20606;-69
2023/07/29 09:21:28;;;;;;;2.70;2.50;;;24.90;57.20;;;;;;4936952;29;20521;-69
2023/07/29 09:23:54;;;;;;;3.00;2.70;;;24.90;57.80;;;;;;4954009;29;20448;-70
2023/07/29 09:26:28;;;;;;;2.37;2.10;;;24.90;57.30;;;;;;4971106;28;20421;-69
2023/07/29 09:28:55;;;;;;;3.60;2.57;;;25.00;57.40;;;;;;4972839;28;20437;-69
2023/07/29 09:31:23;;;;;;;5.03;3.00;;;25.00;57.30;;;;;;4972756;28;20587;-70
2023/07/29 09:33:49;;;;;;;2.83;2.50;;;25.00;57.20;;;;;;4972482;28;20425;-71
2023/07/29 09:36:15;;;;;;;3.00;1.80;;;25.00;57.10;;;;;;4973001;28;20472;-70
2023/07/29 09:38:41;;;;;;;3.00;2.07;;;24.90;57.60;;;;;;4973355;28;20419;-70
2023/07/29 09:41:08;;;;;;;3.83;2.33;;;24.90;57.00;;;;;;4973146;28;20508;-70
2023/07/29 09:43:35;;;;;;;4.03;2.50;;;25.00;57.00;;;;;;4973037;28;20201;-69
2023/07/29 09:46:06;;;;;;;4.20;2.53;;;25.00;57.70;;;;;;4955872;28;20444;-70
2023/07/29 09:48:37;;;;;;;2.53;2.33;;;25.00;57.10;;;;;;4973581;28;20806;-70
2023/07/29 09:51:13;;;;;;;2.40;1.90;;;25.00;57.10;;;;;;4973058;28;20543;-70
2023/07/29 09:53:43;;;;;;;3.10;2.47;;;25.00;57.10;;;;;;4973210;28;20427;-70
2023/07/29 09:56:09;;;;;;;2.90;2.40;;;24.90;56.90;;;;;;4973153;28;20419;-71
2023/07/29 09:58:37;;;;;;;4.13;2.43;;;25.00;57.00;;;;;;4973474;28;20417;-70
2023/07/29 10:01:06;;;;;;;3.03;2.00;;;25.00;57.00;;;;;;4972918;28;20457;-70
2023/07/29 10:03:32;;;;;;;5.20;2.40;;;25.00;56.90;;;;;;4956082;28;20464;-71
2023/07/29 10:06:02;;;;;;;3.50;3.20;;;25.00;56.80;;;;;;4973102;28;20475;-71
2023/07/29 10:08:31;;;;;;;4.03;2.40;;;25.00;56.80;;;;;;4973095;28;20452;-71
2023/07/29 10:11:00;;;;;;;3.17;2.20;;;25.00;56.70;;;;;;4972855;28;20536;-71
2023/07/29 10:13:26;;;;;;;3.80;2.77;;;25.00;56.70;;;;;;4972875;28;20512;-71
2023/07/29 10:15:55;;;;;;;3.10;2.80;;;25.00;56.70;;;;;;4972942;28;20463;-71
2023/07/29 10:18:22;;;;;;;2.33;2.13;;;25.00;56.60;;;;;;4972932;28;20413;-71
2023/07/29 10:20:51;;;;;;;5.13;1.97;;;25.00;56.50;;;;;;4972669;28;20925;-70
2023/07/29 10:23:18;;;;;;;2.10;1.90;;;25.00;56.50;;;;;;4972622;28;20456;-71
2023/07/29 10:25:50;;;;;;;2.90;2.33;;;25.00;56.40;;;;;;4973271;28;20421;-71
2023/07/29 10:28:18;;;;;;;3.63;2.07;;;25.00;56.40;;;;;;4972932;28;20413;-71
2023/07/29 10:30:46;;;;;;;2.97;1.93;;;25.00;56.30;;;;;;4972659;28;20444;-69
2023/07/29 10:33:14;;;;;;;2.10;1.70;;;25.00;56.40;;;;;;4955877;28;20433;-69
2023/07/29 10:35:41;;;;;;;2.20;1.90;;;25.00;56.40;;;;;;4973180;28;20417;-71
2023/07/29 10:38:07;;;;;;;3.43;2.20;;;25.00;56.30;;;;;;4972665;28;20513;-69
2023/07/29 10:40:56;;;;;;;2.43;2.03;;;25.00;56.40;;;;;;4972813;28;20444;-69
2023/07/29 10:43:32;;;;;;;3.77;2.00;;;25.00;56.40;;;;;;4976030;28;20464;-68
2023/07/29 10:46:21;;;;;;;3.73;1.60;;;25.00;56.40;;;;;;4974034;28;20431;-68
2023/07/29 10:48:49;;;;;;;2.57;2.10;;;25.00;56.50;;;;;;4976233;28;20480;-69
2023/07/29 10:51:35;;;;;;;2.20;1.80;;;25.00;56.50;;;;;;4976079;28;20425;-69
2023/07/29 10:54:11;;;;;;;2.20;1.70;;;25.00;56.40;;;;;;4976102;28;20401;-68
2023/07/29 10:56:40;;;;;;;2.70;1.60;;;25.00;56.50;;;;;;4975905;28;20831;-69
2023/07/29 10:59:12;;;;;;;2.30;2.10;;;25.00;56.50;;;;;;4975700;28;20425;-71
2023/07/29 11:01:43;;;;;;;1.77;1.40;;;25.00;56.50;;;;;;4975581;28;20413;-71
2023/07/29 11:04:24;;;;;;;3.70;1.90;;;25.00;56.50;;;;;;4975611;28;20758;-70
2023/07/29 11:07:05;;;;;;;2.10;1.90;;;25.00;56.60;;;;;;4975867;28;20906;-71
2023/07/29 11:09:51;;;;;;;2.30;1.70;;;25.00;56.60;;;;;;4975490;28;20548;-70
2023/07/29 11:12:48;;;;;;;1.77;1.30;;;25.00;56.50;;;;;;4975482;28;20925;-71
2023/07/29 11:15:13;;;;;;;1.53;1.43;;;25.00;56.70;;;;;;4975452;28;20427;-71
2023/07/29 11:17:51;;;;;;;2.27;1.60;;;25.00;56.70;;;;;;4975453;28;20413;-71
2023/07/29 11:20:20;;;;;;;2.07;1.80;;;25.00;56.60;;;;;;4975636;28;20252;-71
2023/07/29 11:22:46;;;;;;;2.70;2.00;;;25.00;56.50;;;;;;4975381;28;20555;-70
2023/07/29 11:25:14;;;;;;;1.50;1.30;;;25.00;56.40;;;;;;4975639;28;20497;-72
2023/07/29 11:27:42;;;;;;;3.03;1.80;;;25.00;56.40;;;;;;4975161;28;20251;-71
2023/07/29 11:30:10;;;;;;;2.10;1.70;;;25.00;56.40;;;;;;4957860;28;20448;-72
2023/07/29 11:32:39;;;;;;;1.90;1.57;;;25.00;56.30;;;;;;4975633;28;20405;-70
2023/07/29 11:35:10;;;;;;;2.53;1.67;;;25.00;56.20;;;;;;4975156;28;20508;-70
2023/07/29 11:37:38;;;;;;;2.00;1.47;;;25.10;56.10;;;;;;4975225;28;20456;-70
2023/07/29 11:40:05;;;;;;;2.53;1.40;;;25.00;56.10;;;;;;4975250;28;20437;-71
2023/07/29 11:42:34;;;;;;;1.70;1.50;;;25.10;56.10;;;;;;4975147;28;20475;-70
2023/07/29 11:45:06;;;;;;;1.50;1.33;;;25.10;56.00;;;;;;4975271;28;20416;-71
2023/07/29 11:47:37;;;;;;;1.77;1.40;;;25.10;56.00;;;;;;4975566;28;20472;-71
2023/07/29 11:50:05;;;;;;;2.10;1.73;;;25.10;56.10;;;;;;4958687;28;20496;-71
2023/07/29 11:52:35;;;;;;;3.63;1.60;;;25.10;56.00;;;;;;4974150;28;20417;-70
2023/07/29 11:55:02;;;;;;;2.00;1.50;;;25.10;55.90;;;;;;4973458;28;20421;-70
2023/07/29 11:57:34;;;;;;;2.67;2.00;;;25.10;55.90;;;;;;4974744;28;20413;-70
2023/07/29 12:00:03;;;;;;;2.57;1.50;;;25.10;55.90;;;;;;4974574;28;20441;-71
2023/07/29 12:02:29;;;;;;;1.70;1.37;;;25.10;56.00;;;;;;4957096;28;20469;-70
2023/07/29 12:04:57;;;;;;;1.53;1.43;;;25.10;56.10;;;;;;4974601;28;20793;-71
2023/07/29 12:07:22;;;;;;;1.57;1.47;;;25.10;56.10;;;;;;4974439;28;20420;-69
2023/07/29 12:09:50;;;;;;;2.17;1.63;;;25.10;56.10;;;;;;4974329;28;20433;-70
2023/07/29 12:12:16;;;;;;;2.00;1.43;;;25.10;56.10;;;;;;4974734;28;20196;-70
2023/07/29 12:14:47;;;;;;;1.70;1.30;;;25.10;56.00;;;;;;4974331;28;20410;-71
2023/07/29 12:17:13;;;;;;;2.40;1.87;;;25.10;56.10;;;;;;4974257;28;20421;-71
2023/07/29 12:19:40;;;;;;;2.60;1.70;;;25.10;56.00;;;;;;4974464;28;20460;-70
2023/07/29 12:22:07;;;;;;;2.07;1.77;;;25.10;56.00;;;;;;4974030;28;20228;-71
2023/07/29 12:24:35;;;;;;;1.60;1.43;;;25.10;56.00;;;;;;4974186;28;20483;-71
2023/07/29 12:27:01;;;;;;;1.83;1.50;;;25.10;56.10;;;;;;4974313;28;20421;-71
2023/07/29 12:29:27;;;;;;;1.60;1.40;;;25.10;56.10;;;;;;4956612;28;20454;-71
2023/07/29 12:32:03;;;;;;;1.87;1.73;;;25.10;56.10;;;;;;4973928;28;20544;-70
2023/07/29 12:34:30;;;;;;;1.73;1.50;;;25.10;56.10;;;;;;4973975;28;20485;-70
2023/07/29 12:36:58;;;;;;;2.37;1.50;;;25.10;56.00;;;;;;4957107;28;20512;-70
2023/07/29 12:39:43;;;;;;;1.87;1.53;;;25.10;56.00;;;;;;4973876;28;20464;-71
2023/07/29 12:42:09;;;;;;;2.27;1.73;;;25.10;56.10;;;;;;4973860;28;20464;-70
2023/07/29 12:44:38;;;;;;;1.83;1.40;;;25.10;56.00;;;;;;4956636;28;20417;-70
2023/07/29 12:47:06;;;;;;;2.80;1.53;;;25.10;55.90;;;;;;4956679;28;20182;-71
2023/07/29 12:49:32;;;;;;;1.67;1.47;;;25.10;55.80;;;;;;4973343;28;20437;-71